Ashboro, Indiana
Current Conditions -  °F | °C
As of 6:53 PM on Friday 24 Oct 2014 (Local Time) from KHUF Reporting Station
Clear Clear  
Wind Chill: 63°   Ceiling: Unl
Heat Index: 63°   Visibility: 10mi
Dew Point: 51°   Wind: 5mph
Humidity: 65%   Direction: 200°SSW
Pressure: 30.02"   Gusts: NA
Location:  39.3787°N, 87.0992°W
Report Text: KHUF 242253Z 20004KT 10SM CLR 17/11 A3002 RMK AO2 SLP164 T01720106
Loading
Personal Weather Stations






























Interactive Weather Map
Tropical Storm Tracking
New forecast layout! Learn more

10-Day Weather Forecast

Advertisements
Track Severe Weather on mobile